15:38
Airports
History
Links
Donate
Help keep this website running!
PayPal
Bitcoin
This page is community maintained. The information is intended for PC simulator navigation or reference.
Always use approved charts for navigation.
CYCP
BLUE RIVER
BLUE RIVER (CYCP)
Yonago-shi, British Columbia, Japan (683)
(U)
Lat/Lng:52° 7' 0" N / 119° 17' 5.01" W
52.116667 / -119.284725
Elevation:2240'ft / 683mMSL
ID / ICAO:CYCP
Runways:1
Longest:01-19
Asphalt 1,529m / 5,016ft
METAR14:00 GMT 2018-02-19
Altimeter: 30.19
Visibility: 15.0 statute miles
Wind: 0 knots (from 000°)
Temp: -27°c / -17°f
Humidity: 82.9%

METAR: CYCP 191400Z 00000KT 15SM FEW040 M27/M29 A3019 RMK SC1 SC TR FROIN VIA CYWL SLP294

(Powered by phpweather)
Airport Radio Frequencies
CTAF: 123.2
Runway 01 / 19
Dimensions:1528.9 x 18.3m 5016' x 60'ft
Surface:Asphalt
Runway 01 [A]Runway 19 [B]
Heading:031°TH 211°TH
Lat:
Lng:
52° 6' 39"N
119° 17' 26.02"W
52° 7' 21"N
119° 16' 44"W
User Notes and Comments
52° 7' 0" N / 119° 17' 5.01" W
Distance To
Airport ID:
Nearby Airports
(U) VALEMOUNT 50.9 NM
CAH4 N 357°
4 Jasper 79.7 NM
CYJA NE 40°
(U) McBride 90.3 NM
AV4 NNW 335°
(U) ONE ZERO EIGHT MILE AIRPORT 91.2 NM
CZML WSW 253°
(U) One Hundred Mile House 92.2 NM
AV3 WSW 249°
(U) REVELSTOKE 92.5 NM
CYRV ( WX ) SSE 149°
(U) SALMON ARM 99.1 NM
CZAM S 178°
VFR Chart
Flight Planning at SkyVector.com